Time;durP1;ratioP1;P1;durP2;ratioP2;P2;SDS_P1;SDS_P2;PMS_P1;PMS_P2;Temp;Humidity;BMP_temperature;BMP_pressure;BME280_temperature;BME280_humidity;BME280_pressure;Samples;Min_cycle;Max_cycle;Signal;HPM_P1;HPM_P2
2021/04/03 00:00:16;;;;;;;17.65;4.72;;;7.80;99.90;;;;;;4158976;28;20477;-69
2021/04/03 00:02:16;;;;;;;15.13;4.68;;;7.80;99.90;;;;;;4166268;28;20037;-69
2021/04/03 00:04:17;;;;;;;17.73;4.97;;;7.80;99.90;;;;;;4159427;28;20108;-69
2021/04/03 00:06:17;;;;;;;18.75;4.93;;;7.80;99.90;;;;;;4159319;28;20071;-69
2021/04/03 00:08:22;;;;;;;13.52;4.20;;;7.80;99.90;;;;;;4159675;28;20553;-68
2021/04/03 00:10:27;;;;;;;21.83;5.07;;;7.80;99.90;;;;;;4173681;28;20033;-69
2021/04/03 00:12:28;;;;;;;16.48;4.35;;;7.80;99.90;;;;;;4163720;28;20037;-69
2021/04/03 00:14:29;;;;;;;14.40;4.28;;;7.80;99.90;;;;;;4164306;28;20673;-69
2021/04/03 00:16:29;;;;;;;20.88;4.97;;;7.80;99.90;;;;;;4184504;28;20025;-68
2021/04/03 00:18:30;;;;;;;25.77;5.07;;;7.80;99.90;;;;;;4159253;28;20117;-69
2021/04/03 00:20:32;;;;;;;20.95;5.05;;;7.80;99.90;;;;;;4174695;28;20033;-69
2021/04/03 00:22:33;;;;;;;20.25;5.13;;;7.70;99.90;;;;;;4169110;28;20038;-69
2021/04/03 00:24:33;;;;;;;14.10;4.53;;;7.80;99.90;;;;;;4166699;28;20059;-69
2021/04/03 00:26:34;;;;;;;20.63;4.35;;;7.70;99.90;;;;;;4191478;28;20056;-69
2021/04/03 00:28:35;;;;;;;15.63;4.03;;;7.80;99.90;;;;;;4160554;28;20168;-69
2021/04/03 00:30:35;;;;;;;14.77;3.35;;;7.80;99.90;;;;;;4158719;28;20083;-69
2021/04/03 00:32:36;;;;;;;10.80;3.40;;;7.80;99.90;;;;;;4159742;28;20144;-69
2021/04/03 00:34:37;;;;;;;17.52;3.63;;;7.70;99.90;;;;;;4167068;28;20144;-69
2021/04/03 00:36:37;;;;;;;14.80;3.58;;;7.70;99.90;;;;;;4172889;28;20110;-68
2021/04/03 00:38:38;;;;;;;13.77;3.67;;;7.70;99.90;;;;;;4159486;28;20026;-69
2021/04/03 00:40:47;;;;;;;11.13;3.00;;;7.70;99.90;;;;;;4174076;28;20436;-69
2021/04/03 00:42:48;;;;;;;16.95;4.10;;;7.70;99.90;;;;;;4160332;28;20091;-69
2021/04/03 00:44:49;;;;;;;14.50;3.20;;;7.70;99.90;;;;;;4168485;28;20029;-69
2021/04/03 00:46:49;;;;;;;11.82;3.03;;;7.70;99.90;;;;;;4169525;28;20127;-69
2021/04/03 00:48:50;;;;;;;12.45;3.20;;;7.70;99.90;;;;;;4135039;28;20064;-69
2021/04/03 00:50:54;;;;;;;14.00;3.50;;;7.70;99.90;;;;;;4159259;28;20036;-68
2021/04/03 00:52:55;;;;;;;10.10;2.58;;;7.70;99.90;;;;;;4141396;28;20038;-69
2021/04/03 00:54:56;;;;;;;13.35;3.22;;;7.70;99.90;;;;;;4168852;28;20048;-69
2021/04/03 00:56:56;;;;;;;15.60;3.53;;;7.70;99.90;;;;;;4175672;28;20033;-69
2021/04/03 00:58:57;;;;;;;13.38;3.45;;;7.60;99.90;;;;;;4165076;28;20033;-69
2021/04/03 01:00:59;;;;;;;13.00;2.80;;;7.60;99.90;;;;;;4169963;28;20029;-69
2021/04/03 01:02:59;;;;;;;15.75;3.38;;;7.70;99.90;;;;;;4165270;28;20064;-68
2021/04/03 01:05:02;;;;;;;10.93;2.75;;;7.60;99.90;;;;;;4175529;28;20033;-69
2021/04/03 01:07:03;;;;;;;16.85;3.55;;;7.60;99.90;;;;;;4157230;28;20041;-69
2021/04/03 01:09:05;;;;;;;20.40;4.47;;;7.60;99.90;;;;;;4158991;28;20079;-69
2021/04/03 01:11:07;;;;;;;13.63;3.67;;;7.60;99.90;;;;;;4158988;28;20467;-69
2021/04/03 01:13:36;;;;;;;15.30;3.58;;;7.60;99.90;;;;;;4169392;28;20163;-69
2021/04/03 01:15:49;;;;;;;17.00;3.50;;;7.60;99.90;;;;;;4184538;28;20546;-69
2021/04/03 01:18:05;;;;;;;17.95;3.75;;;7.60;99.90;;;;;;4179728;28;20505;-68
2021/04/03 01:20:45;;;;;;;15.35;3.40;;;7.60;99.90;;;;;;4191426;28;20044;-68
2021/04/03 01:22:58;;;;;;;16.05;3.58;;;7.60;99.90;;;;;;4156204;28;20106;-69
2021/04/03 01:25:24;;;;;;;10.55;3.10;;;7.60;99.90;;;;;;4161268;28;20033;-69
2021/04/03 01:27:25;;;;;;;10.10;3.17;;;7.60;99.90;;;;;;4175421;28;20040;-69
2021/04/03 01:29:29;;;;;;;17.55;3.00;;;7.60;99.90;;;;;;4160271;28;20036;-69
2021/04/03 01:31:31;;;;;;;18.10;3.83;;;7.60;99.90;;;;;;4173798;28;20040;-69
2021/04/03 01:33:34;;;;;;;13.95;3.60;;;7.50;99.90;;;;;;4160122;28;21041;-68
2021/04/03 01:35:38;;;;;;;12.07;2.95;;;7.50;99.90;;;;;;4166020;28;20033;-69
2021/04/03 01:37:47;;;;;;;14.77;2.83;;;7.60;99.90;;;;;;4162918;28;20478;-69
2021/04/03 01:39:52;;;;;;;9.27;2.78;;;7.60;99.90;;;;;;4167235;28;20114;-69
2021/04/03 01:41:56;;;;;;;10.65;2.92;;;7.50;99.90;;;;;;4167992;28;20036;-69
2021/04/03 01:43:59;;;;;;;17.23;3.15;;;7.60;99.90;;;;;;4174248;28;20133;-69
2021/04/03 01:46:01;;;;;;;18.15;3.58;;;7.60;99.90;;;;;;4176675;28;22873;-69
2021/04/03 01:48:04;;;;;;;18.52;3.90;;;7.60;99.90;;;;;;4168314;28;20040;-69
2021/04/03 01:50:06;;;;;;;10.70;2.88;;;7.60;99.90;;;;;;4163291;28;20497;-69
2021/04/03 01:52:07;;;;;;;18.45;3.78;;;7.50;99.90;;;;;;4161858;28;20400;-69
2021/04/03 01:54:11;;;;;;;11.10;3.20;;;7.50;99.90;;;;;;4161566;28;20031;-69
2021/04/03 01:56:13;;;;;;;19.55;3.55;;;7.50;99.90;;;;;;4174091;28;20032;-69
2021/04/03 01:58:14;;;;;;;14.52;3.33;;;7.50;99.90;;;;;;4173733;28;20045;-68
2021/04/03 02:00:19;;;;;;;23.77;4.25;;;7.50;99.90;;;;;;4159722;28;20513;-69
2021/04/03 02:02:20;;;;;;;13.48;3.35;;;7.50;99.90;;;;;;4175409;28;20464;-69
2021/04/03 02:04:22;;;;;;;13.77;2.97;;;7.50;99.90;;;;;;4172133;28;20113;-69
2021/04/03 02:06:22;;;;;;;18.25;3.00;;;7.50;99.90;;;;;;4159245;28;20125;-69
2021/04/03 02:08:25;;;;;;;11.80;3.33;;;7.50;99.90;;;;;;4161356;28;20049;-69
2021/04/03 02:10:27;;;;;;;16.23;2.92;;;7.50;99.90;;;;;;4169844;28;20029;-69
2021/04/03 02:12:28;;;;;;;;;;;7.50;99.90;;;;;;4161859;28;20037;-69
2021/04/03 02:14:30;;;;;;;12.13;3.05;;;7.40;99.90;;;;;;4161570;28;19928;-68
2021/04/03 02:16:34;;;;;;;12.23;2.88;;;7.40;99.90;;;;;;4168262;28;20061;-69
2021/04/03 02:18:37;;;;;;;14.35;3.55;;;7.40;99.90;;;;;;4163107;28;20065;-69
2021/04/03 02:20:38;;;;;;;14.82;3.45;;;7.40;99.90;;;;;;4176123;28;20736;-69
2021/04/03 02:22:41;;;;;;;12.23;2.40;;;7.40;99.90;;;;;;4176142;28;20111;-69
2021/04/03 02:24:45;;;;;;;11.50;2.95;;;7.40;99.90;;;;;;4166916;28;20072;-69
2021/04/03 02:26:46;;;;;;;10.57;2.38;;;7.40;99.90;;;;;;4160674;28;20124;-69
2021/04/03 02:28:49;;;;;;;17.98;3.92;;;7.40;99.90;;;;;;4177161;28;20145;-69
2021/04/03 02:30:50;;;;;;;19.38;3.90;;;7.50;99.90;;;;;;4159748;28;20038;-69
2021/04/03 02:32:54;;;;;;;12.30;3.30;;;7.50;99.90;;;;;;4176221;28;20041;-69
2021/04/03 02:34:55;;;;;;;14.73;3.55;;;7.50;99.90;;;;;;4161039;28;20052;-69
2021/04/03 02:36:55;;;;;;;15.98;2.63;;;7.50;99.90;;;;;;4171313;28;20028;-69
2021/04/03 02:38:56;;;;;;;18.45;3.70;;;7.50;99.90;;;;;;4190533;28;20082;-69
2021/04/03 02:40:57;;;;;;;11.63;3.25;;;7.50;99.90;;;;;;4167542;28;20042;-69
2021/04/03 02:43:10;;;;;;;13.75;3.15;;;7.50;99.90;;;;;;4161399;28;20041;-69
2021/04/03 02:45:17;;;;;;;12.68;2.78;;;7.60;99.90;;;;;;4161053;28;20040;-69
2021/04/03 02:47:32;;;;;;;21.15;3.88;;;7.50;99.90;;;;;;4160524;28;20095;-69
2021/04/03 02:49:57;;;;;;;17.63;2.85;;;7.50;99.90;;;;;;4192539;28;20020;-69
2021/04/03 02:52:00;;;;;;;11.98;2.80;;;7.50;99.90;;;;;;4171013;28;20037;-69
2021/04/03 02:54:02;;;;;;;11.70;3.17;;;7.50;99.90;;;;;;4173907;28;20426;-69
2021/04/03 02:56:05;;;;;;;13.50;2.70;;;7.50;99.90;;;;;;4159037;28;20508;-69
2021/04/03 02:58:07;;;;;;;12.88;2.67;;;7.60;99.90;;;;;;4160769;28;20704;-69
2021/04/03 03:00:09;;;;;;;11.88;2.72;;;7.60;99.90;;;;;;4158745;28;20573;-69
2021/04/03 03:02:15;;;;;;;12.50;2.90;;;7.60;99.90;;;;;;4163204;28;20033;-69
2021/04/03 03:04:17;;;;;;;18.88;3.38;;;7.60;99.90;;;;;;4176300;28;20040;-69
2021/04/03 03:06:22;;;;;;;15.35;3.47;;;7.60;99.90;;;;;;4178283;28;20049;-69
2021/04/03 03:08:25;;;;;;;10.23;2.53;;;7.50;99.90;;;;;;4174790;28;20033;-69
2021/04/03 03:10:27;;;;;;;17.65;3.38;;;7.50;99.90;;;;;;4170804;28;20029;-69
2021/04/03 03:12:29;;;;;;;;;;;7.50;99.90;;;;;;4160887;28;20044;-69
2021/04/03 03:14:30;;;;;;;14.88;3.47;;;7.50;99.90;;;;;;4175218;28;20300;-69
2021/04/03 03:16:32;;;;;;;21.23;4.40;;;7.50;99.90;;;;;;4160260;28;20125;-69
2021/04/03 03:18:34;;;;;;;15.90;3.47;;;7.50;99.90;;;;;;4160064;28;20052;-69
2021/04/03 03:20:35;;;;;;;14.47;3.20;;;7.50;99.90;;;;;;4160386;28;20037;-69
2021/04/03 03:22:37;;;;;;;15.68;3.03;;;7.50;99.90;;;;;;4167899;28;20786;-69
2021/04/03 03:24:38;;;;;;;12.63;3.38;;;7.40;99.90;;;;;;4174932;28;20037;-69
2021/04/03 03:26:40;;;;;;;12.05;3.03;;;7.40;99.90;;;;;;4160774;28;20050;-69
2021/04/03 03:28:41;;;;;;;13.77;3.15;;;7.40;99.90;;;;;;4170583;28;20516;-69
2021/04/03 03:30:42;;;;;;;11.98;3.00;;;7.50;99.90;;;;;;4160068;28;20492;-69
2021/04/03 03:32:43;;;;;;;17.48;3.58;;;7.50;99.90;;;;;;4168562;28;20124;-69
2021/04/03 03:34:43;;;;;;;13.48;3.05;;;7.40;99.90;;;;;;4190974;28;20064;-69
2021/04/03 03:36:45;;;;;;;11.80;2.78;;;7.40;99.90;;;;;;4160752;28;20037;-69
2021/04/03 03:38:46;;;;;;;10.15;2.50;;;7.40;99.90;;;;;;4176009;28;20040;-69
2021/04/03 03:40:48;;;;;;;19.05;3.58;;;7.40;99.90;;;;;;4159946;28;20045;-69
2021/04/03 03:42:49;;;;;;;15.85;2.90;;;7.50;99.90;;;;;;4165733;28;20485;-69
2021/04/03 03:44:51;;;;;;;12.85;3.20;;;7.50;99.90;;;;;;4159784;28;20037;-68
2021/04/03 03:46:51;;;;;;;10.38;2.40;;;7.40;99.90;;;;;;4161241;28;20044;-69
2021/04/03 03:48:52;;;;;;;15.15;3.20;;;7.50;99.90;;;;;;4160104;28;20502;-69
2021/04/03 03:50:52;;;;;;;16.27;3.83;;;7.50;99.90;;;;;;4160214;28;20397;-69
2021/04/03 03:52:53;;;;;;;13.30;2.50;;;7.50;99.90;;;;;;4169781;28;20112;-69
2021/04/03 03:54:54;;;;;;;13.85;3.40;;;7.50;99.90;;;;;;4174813;28;20029;-69
2021/04/03 03:56:55;;;;;;;18.13;2.97;;;7.50;99.90;;;;;;4160111;28;20034;-69
2021/04/03 03:58:55;;;;;;;12.55;3.00;;;7.50;99.90;;;;;;4176098;28;20114;-69
2021/04/03 04:00:56;;;;;;;14.18;2.63;;;7.50;99.90;;;;;;4180693;28;20029;-69
2021/04/03 04:02:56;;;;;;;20.50;3.90;;;7.50;99.90;;;;;;4161805;28;20026;-69
2021/04/03 04:04:57;;;;;;;11.55;3.22;;;7.50;99.90;;;;;;4175666;28;20031;-69
2021/04/03 04:06:58;;;;;;;14.23;2.78;;;7.50;99.90;;;;;;4163167;28;20030;-69
2021/04/03 04:09:02;;;;;;;15.68;3.50;;;7.50;99.90;;;;;;4158274;28;20065;-69
2021/04/03 04:11:03;;;;;;;13.38;3.17;;;7.50;99.90;;;;;;4158880;28;20025;-69
2021/04/03 04:13:04;;;;;;;10.38;2.85;;;7.50;99.90;;;;;;4159042;28;20038;-69
2021/04/03 04:15:06;;;;;;;14.15;3.38;;;7.50;99.90;;;;;;4159023;28;20037;-69
2021/04/03 04:17:07;;;;;;;11.68;3.25;;;7.50;99.90;;;;;;4159152;28;20037;-69
2021/04/03 04:19:08;;;;;;;14.25;3.38;;;7.50;99.90;;;;;;4169962;28;20037;-69
2021/04/03 04:21:08;;;;;;;21.65;4.47;;;7.50;99.90;;;;;;4189725;28;20040;-69
2021/04/03 04:23:09;;;;;;;17.13;3.28;;;7.50;99.90;;;;;;4157126;28;20034;-69
2021/04/03 04:25:11;;;;;;;14.13;2.80;;;7.50;99.90;;;;;;4173884;28;20071;-69
2021/04/03 04:27:11;;;;;;;16.70;3.40;;;7.50;99.90;;;;;;4159308;28;20389;-69
2021/04/03 04:29:13;;;;;;;16.98;3.30;;;7.50;99.90;;;;;;4158740;28;20037;-69
2021/04/03 04:31:14;;;;;;;18.80;3.60;;;7.40;99.90;;;;;;4159131;28;20108;-69
2021/04/03 04:33:14;;;;;;;19.05;3.10;;;7.40;99.90;;;;;;4174049;28;20103;-68
2021/04/03 04:35:15;;;;;;;14.38;3.20;;;7.40;99.90;;;;;;4157400;28;20061;-69
2021/04/03 04:37:16;;;;;;;12.65;2.80;;;7.40;99.90;;;;;;4152977;28;20065;-69
2021/04/03 04:39:16;;;;;;;13.07;3.28;;;7.40;99.90;;;;;;4185092;28;20052;-69
2021/04/03 04:41:17;;;;;;;13.65;3.28;;;7.40;99.90;;;;;;4157078;28;20381;-69
2021/04/03 04:43:19;;;;;;;18.55;3.53;;;7.50;99.90;;;;;;4155679;28;20044;-69
2021/04/03 04:45:20;;;;;;;15.02;3.95;;;7.50;99.90;;;;;;4159327;28;20037;-69
2021/04/03 04:47:20;;;;;;;9.13;2.30;;;7.40;99.90;;;;;;4159081;28;20029;-69
2021/04/03 04:49:21;;;;;;;19.73;4.00;;;7.50;99.90;;;;;;4158804;28;20125;-69
2021/04/03 04:51:22;;;;;;;17.85;3.60;;;7.40;99.90;;;;;;4159362;28;20030;-69
2021/04/03 04:53:22;;;;;;;23.13;4.22;;;7.50;99.90;;;;;;4159052;28;20116;-69
2021/04/03 04:55:23;;;;;;;13.82;3.05;;;7.50;99.90;;;;;;4159720;28;20105;-69
2021/04/03 04:57:23;;;;;;;12.00;2.97;;;7.40;99.90;;;;;;4157954;28;20409;-69
2021/04/03 04:59:24;;;;;;;13.98;3.13;;;7.40;99.90;;;;;;4158879;28;20513;-69
2021/04/03 05:01:25;;;;;;;17.42;3.85;;;7.50;99.90;;;;;;4159253;28;20029;-69
2021/04/03 05:03:27;;;;;;;16.05;3.80;;;7.50;99.90;;;;;;4158715;28;20037;-69
2021/04/03 05:05:28;;;;;;;;;;;7.40;99.90;;;;;;4159595;28;20033;-69
2021/04/03 05:07:28;;;;;;;12.85;3.22;;;7.40;99.90;;;;;;4158263;28;19950;-69
2021/04/03 05:09:29;;;;;;;11.75;2.78;;;7.40;99.90;;;;;;4185489;28;20017;-69
2021/04/03 05:11:30;;;;;;;18.33;4.30;;;7.50;99.90;;;;;;4156830;28;20040;-69
2021/04/03 05:13:30;;;;;;;15.57;3.70;;;7.40;99.90;;;;;;4186756;28;20033;-69
2021/04/03 05:15:31;;;;;;;13.85;3.38;;;7.40;99.90;;;;;;4157969;28;20061;-69
2021/04/03 05:17:31;;;;;;;17.02;3.53;;;7.40;99.90;;;;;;4159025;28;20030;-69
2021/04/03 05:19:32;;;;;;;14.40;3.13;;;7.50;99.90;;;;;;4161811;28;20053;-69
2021/04/03 05:21:33;;;;;;;13.82;3.83;;;7.50;99.90;;;;;;4159268;28;20055;-69
2021/04/03 05:23:33;;;;;;;11.85;3.45;;;7.50;99.90;;;;;;4156160;28;20033;-69
2021/04/03 05:25:34;;;;;;;12.65;3.45;;;7.50;99.90;;;;;;4161550;28;20038;-69
2021/04/03 05:27:34;;;;;;;12.73;3.10;;;7.50;99.90;;;;;;4184996;28;20033;-69
2021/04/03 05:29:35;;;;;;;16.52;3.03;;;7.50;99.90;;;;;;4160182;28;20041;-69
2021/04/03 05:31:35;;;;;;;11.82;3.35;;;7.50;99.90;;;;;;4160166;28;20060;-69
2021/04/03 05:33:36;;;;;;;15.38;3.80;;;7.50;99.90;;;;;;4160082;28;20041;-69
2021/04/03 05:35:37;;;;;;;23.10;4.20;;;7.60;99.90;;;;;;4118494;28;20216;-69
2021/04/03 05:37:37;;;;;;;20.30;4.57;;;7.50;99.90;;;;;;4165362;28;20047;-69
2021/04/03 05:39:38;;;;;;;16.30;3.30;;;7.50;99.90;;;;;;4161386;28;20065;-69
2021/04/03 05:41:39;;;;;;;15.52;3.53;;;7.50;99.90;;;;;;4156858;28;20056;-69
2021/04/03 05:43:39;;;;;;;16.70;4.00;;;7.50;99.90;;;;;;4157719;28;20041;-69
2021/04/03 05:45:42;;;;;;;11.93;3.42;;;7.50;99.90;;;;;;4160808;28;20041;-69
2021/04/03 05:47:43;;;;;;;15.25;3.58;;;7.50;99.90;;;;;;4172254;28;20063;-69
2021/04/03 05:49:44;;;;;;;16.02;4.00;;;7.60;99.90;;;;;;4161661;28;20067;-69
2021/04/03 05:51:46;;;;;;;17.83;3.78;;;7.50;99.90;;;;;;4161446;28;20628;-69
2021/04/03 05:53:47;;;;;;;24.87;4.50;;;7.60;99.90;;;;;;4160473;28;20064;-69
2021/04/03 05:55:55;;;;;;;17.35;3.85;;;7.60;99.90;;;;;;4162907;28;20740;-69
2021/04/03 05:57:56;;;;;;;26.05;4.93;;;7.60;99.90;;;;;;4161221;28;20112;-69
2021/04/03 05:59:57;;;;;;;25.65;6.10;;;7.60;99.90;;;;;;4160215;28;20057;-69
2021/04/03 06:01:57;;;;;;;20.25;5.18;;;7.60;99.90;;;;;;4161723;28;20033;-69
2021/04/03 06:03:58;;;;;;;20.13;5.45;;;7.70;99.90;;;;;;4161233;28;20045;-69
2021/04/03 06:05:59;;;;;;;25.98;6.63;;;7.70;99.90;;;;;;4160557;28;20092;-69
2021/04/03 06:08:00;;;;;;;24.00;4.93;;;7.70;99.90;;;;;;4160790;28;20060;-69
2021/04/03 06:10:03;;;;;;;21.77;5.07;;;7.70;99.90;;;;;;4158189;28;21909;-69
2021/04/03 06:12:04;;;;;;;19.45;4.88;;;7.70;99.90;;;;;;4188517;28;20040;-69
2021/04/03 06:14:06;;;;;;;22.13;4.90;;;7.70;99.90;;;;;;4160678;28;20026;-69
2021/04/03 06:16:26;;;;;;;21.45;4.70;;;7.70;99.90;;;;;;4159863;28;20037;-69
2021/04/03 06:18:27;;;;;;;21.10;5.03;;;7.70;99.90;;;;;;4160521;28;20477;-69
2021/04/03 06:20:41;;;;;;;21.55;4.60;;;7.80;99.90;;;;;;4160490;28;20115;-69
2021/04/03 06:22:48;;;;;;;28.13;5.35;;;7.80;99.90;;;;;;4159726;28;20041;-70
2021/04/03 06:25:03;;;;;;;20.20;4.30;;;7.90;99.90;;;;;;4159068;28;20037;-70
2021/04/03 06:27:12;;;;;;;17.63;4.55;;;7.90;99.90;;;;;;4162905;28;20034;-70
2021/04/03 06:29:35;;;;;;;17.75;4.65;;;7.90;99.90;;;;;;4160027;28;20034;-69
2021/04/03 06:31:41;;;;;;;14.95;3.45;;;7.90;99.90;;;;;;4178917;28;20057;-70
2021/04/03 06:33:42;;;;;;;15.85;3.53;;;8.00;99.90;;;;;;4185692;28;20082;-68
2021/04/03 06:35:44;;;;;;;19.02;4.53;;;8.00;99.90;;;;;;4160834;28;20034;-68
2021/04/03 06:37:45;;;;;;;19.33;4.47;;;8.00;99.90;;;;;;4159014;28;20513;-68
2021/04/03 06:39:52;;;;;;;22.90;4.20;;;8.00;99.90;;;;;;4160058;28;20069;-68
2021/04/03 06:41:52;;;;;;;20.83;4.40;;;8.00;99.90;;;;;;4156608;28;20089;-68
2021/04/03 06:44:06;;;;;;;23.52;4.50;;;8.00;99.90;;;;;;4159834;28;20042;-68
2021/04/03 06:46:24;;;;;;;17.58;4.28;;;8.00;99.90;;;;;;4156368;28;20045;-68
2021/04/03 06:48:27;;;;;;;14.25;3.63;;;8.10;99.90;;;;;;4158529;28;20049;-67
2021/04/03 06:50:33;;;;;;;19.75;4.55;;;8.10;99.90;;;;;;4159359;28;20036;-67
2021/04/03 06:52:34;;;;;;;21.73;4.43;;;8.10;99.90;;;;;;4160744;28;20034;-67
2021/04/03 06:54:35;;;;;;;13.48;4.03;;;8.10;99.90;;;;;;4160084;28;20045;-67
2021/04/03 06:56:36;;;;;;;18.80;4.05;;;8.20;99.90;;;;;;4159918;28;20045;-67
2021/04/03 06:58:39;;;;;;;20.85;4.18;;;8.20;99.90;;;;;;4161800;28;20414;-67
2021/04/03 07:00:41;;;;;;;17.65;4.00;;;8.20;99.90;;;;;;4159997;28;20042;-67
2021/04/03 07:02:45;;;;;;;18.08;4.13;;;8.30;99.90;;;;;;4159555;28;20398;-67
2021/04/03 07:04:45;;;;;;;19.05;3.78;;;8.30;99.90;;;;;;4178052;28;20036;-67
2021/04/03 07:06:49;;;;;;;21.75;4.25;;;8.30;99.90;;;;;;4159792;28;20045;-67
2021/04/03 07:08:51;;;;;;;12.65;3.85;;;8.30;99.90;;;;;;4165362;28;20039;-67
2021/04/03 07:10:53;;;;;;;23.25;4.85;;;8.30;99.90;;;;;;4160584;28;20117;-67
2021/04/03 07:12:56;;;;;;;19.47;4.37;;;8.30;99.90;;;;;;4160445;28;20385;-67
2021/04/03 07:14:57;;;;;;;16.98;3.58;;;8.30;99.90;;;;;;4158464;28;20673;-67
2021/04/03 07:17:01;;;;;;;25.85;4.47;;;8.30;99.90;;;;;;4159369;28;20045;-67
2021/04/03 07:19:05;;;;;;;16.98;3.92;;;8.30;99.90;;;;;;4158607;28;20103;-67
2021/04/03 07:21:08;;;;;;;20.08;3.85;;;8.20;99.90;;;;;;4159486;28;20386;-67
2021/04/03 07:23:11;;;;;;;16.45;3.83;;;8.20;99.90;;;;;;4157829;28;20377;-67
2021/04/03 07:25:12;;;;;;;18.92;4.28;;;8.20;99.90;;;;;;4163251;28;20109;-67
2021/04/03 07:27:13;;;;;;;24.33;5.22;;;8.20;99.90;;;;;;4160556;28;20104;-66
2021/04/03 07:29:38;;;;;;;17.67;4.00;;;8.20;99.90;;;;;;4159399;28;20037;-66
2021/04/03 07:31:46;;;;;;;16.80;4.40;;;8.30;99.90;;;;;;4157057;28;20052;-66
2021/04/03 07:33:49;;;;;;;19.35;4.15;;;8.30;99.90;;;;;;4157352;28;20717;-67
2021/04/03 07:35:51;;;;;;;26.40;5.03;;;8.30;99.90;;;;;;4156210;28;20045;-67
2021/04/03 07:37:53;;;;;;;18.73;3.80;;;8.40;99.90;;;;;;4158183;28;20493;-67
2021/04/03 07:39:54;;;;;;;16.77;3.92;;;8.40;99.90;;;;;;4157691;28;20300;-67
2021/04/03 07:41:54;;;;;;;18.73;4.50;;;8.40;99.90;;;;;;4183198;28;20408;-67
2021/04/03 07:44:08;;;;;;;21.85;4.50;;;8.50;99.90;;;;;;4158484;28;20037;-67
2021/04/03 07:46:10;;;;;;;16.55;4.45;;;8.50;99.90;;;;;;4161146;28;20054;-67
2021/04/03 07:48:24;;;;;;;20.25;4.40;;;8.60;99.90;;;;;;4159503;28;20029;-67
2021/04/03 07:50:40;;;;;;;13.52;3.58;;;8.60;99.90;;;;;;4159586;28;20040;-67
2021/04/03 07:52:56;;;;;;;10.70;3.45;;;8.70;99.90;;;;;;4156318;28;20037;-67
2021/04/03 07:55:30;;;;;;;15.90;3.92;;;8.70;99.90;;;;;;4156513;28;20041;-67
2021/04/03 07:57:34;;;;;;;23.83;4.55;;;8.70;99.90;;;;;;4158722;28;20045;-67
2021/04/03 07:59:47;;;;;;;23.30;5.00;;;8.70;99.90;;;;;;4158177;28;20656;-67
2021/04/03 08:01:49;;;;;;;23.48;5.18;;;8.70;99.90;;;;;;4158692;28;20559;-67
2021/04/03 08:03:59;;;;;;;22.42;4.63;;;8.70;99.90;;;;;;4159110;28;20036;-67
2021/04/03 08:06:04;;;;;;;15.55;4.35;;;8.70;99.90;;;;;;4158660;28;20067;-67
2021/04/03 08:08:05;;;;;;;17.88;6.22;;;8.70;99.90;;;;;;4159015;28;20124;-67
2021/04/03 08:10:17;;;;;;;16.27;4.07;;;8.70;99.90;;;;;;4189797;28;20369;-67
2021/04/03 08:12:21;;;;;;;23.20;5.53;;;8.80;99.90;;;;;;4163588;28;20389;-67
2021/04/03 08:14:28;;;;;;;24.20;6.18;;;8.80;99.90;;;;;;4168321;28;20061;-67
2021/04/03 08:16:30;;;;;;;21.35;5.88;;;8.80;99.90;;;;;;4159948;28;20091;-67
2021/04/03 08:18:32;;;;;;;;;;;8.80;99.90;;;;;;4157659;28;20452;-67
2021/04/03 08:20:33;;;;;;;12.93;4.55;;;8.80;99.90;;;;;;4159999;28;19979;-67
2021/04/03 08:22:34;;;;;;;13.07;4.53;;;8.80;99.90;;;;;;4158129;28;20041;-67
2021/04/03 08:24:35;;;;;;;16.38;4.70;;;8.90;99.90;;;;;;4157776;28;20587;-67
2021/04/03 08:26:38;;;;;;;16.55;5.03;;;8.90;99.90;;;;;;4163753;28;20039;-67
2021/04/03 08:28:38;;;;;;;18.35;4.45;;;8.90;99.90;;;;;;4158529;28;20125;-67
2021/04/03 08:30:39;;;;;;;18.77;4.65;;;8.90;99.90;;;;;;4158197;28;20064;-67
2021/04/03 08:32:39;;;;;;;22.63;4.88;;;9.00;99.90;;;;;;4158249;28;20068;-67
2021/04/03 08:34:43;;;;;;;22.00;7.38;;;9.00;99.90;;;;;;4156340;28;20037;-67
2021/04/03 08:36:44;;;;;;;24.33;8.75;;;9.00;99.90;;;;;;4159084;28;20044;-67
2021/04/03 08:38:45;;;;;;;24.95;8.85;;;9.00;99.90;;;;;;4158269;28;20037;-67
2021/04/03 08:40:47;;;;;;;26.20;8.10;;;9.10;99.90;;;;;;4173565;28;20049;-67
2021/04/03 08:42:47;;;;;;;19.50;6.82;;;9.10;99.90;;;;;;4157322;28;20042;-67
2021/04/03 08:44:48;;;;;;;16.35;4.47;;;9.10;99.90;;;;;;4157213;28;20033;-67
2021/04/03 08:46:51;;;;;;;22.17;5.60;;;9.10;99.90;;;;;;4164860;28;20037;-67
2021/04/03 08:48:58;;;;;;;24.67;5.78;;;9.10;99.90;;;;;;4151622;28;20112;-67
2021/04/03 08:50:59;;;;;;;22.90;5.30;;;9.10;99.90;;;;;;4158098;28;20030;-67
2021/04/03 08:53:01;;;;;;;14.60;4.55;;;9.10;99.90;;;;;;4192772;28;20043;-67
2021/04/03 08:55:02;;;;;;;29.48;5.55;;;9.20;99.90;;;;;;4156650;28;20048;-67
2021/04/03 08:57:17;;;;;;;17.42;4.38;;;9.20;99.90;;;;;;4161986;28;20718;-67
2021/04/03 08:59:21;;;;;;;19.63;5.20;;;9.10;99.90;;;;;;4160998;28;20375;-67
2021/04/03 09:01:28;;;;;;;20.27;5.15;;;9.20;99.90;;;;;;4162143;28;20037;-67
2021/04/03 09:03:29;;;;;;;16.00;4.32;;;9.10;99.90;;;;;;4161349;28;20109;-67
2021/04/03 09:05:29;;;;;;;20.80;4.32;;;9.20;99.90;;;;;;4162081;28;20477;-67
2021/04/03 09:07:31;;;;;;;19.67;4.70;;;9.20;99.90;;;;;;4161981;28;20033;-67
2021/04/03 09:09:32;;;;;;;18.55;5.03;;;9.20;99.90;;;;;;4161734;28;20032;-67
2021/04/03 09:11:33;;;;;;;19.23;5.03;;;9.20;99.90;;;;;;4161114;28;20120;-67
2021/04/03 09:13:39;;;;;;;22.88;5.03;;;9.30;99.90;;;;;;4160821;28;20026;-67
2021/04/03 09:15:41;;;;;;;23.83;5.47;;;9.30;99.90;;;;;;4160161;28;20509;-67
2021/04/03 09:17:56;;;;;;;24.20;5.80;;;9.30;99.90;;;;;;4161266;28;20382;-67
2021/04/03 09:20:08;;;;;;;19.25;5.25;;;9.30;99.90;;;;;;4181728;28;20044;-67
2021/04/03 09:22:13;;;;;;;20.77;5.72;;;9.40;99.90;;;;;;4161838;28;20038;-67
2021/04/03 09:24:13;;;;;;;20.92;5.18;;;9.40;99.90;;;;;;4163076;28;20550;-67
2021/04/03 09:26:14;;;;;;;14.75;4.70;;;9.50;99.90;;;;;;4159559;28;20037;-67
2021/04/03 09:28:15;;;;;;;16.85;4.47;;;9.50;99.90;;;;;;4158801;28;20053;-67
2021/04/03 09:30:16;;;;;;;20.15;5.35;;;9.60;99.90;;;;;;4160328;28;20041;-67
2021/04/03 09:32:17;;;;;;;23.95;5.75;;;9.60;99.90;;;;;;4160566;28;20088;-67
2021/04/03 09:34:29;;;;;;;20.17;5.57;;;9.60;99.90;;;;;;4162365;28;20042;-67
2021/04/03 09:36:44;;;;;;;20.77;4.72;;;9.60;99.90;;;;;;4159822;28;20129;-67
2021/04/03 09:38:45;;;;;;;16.10;4.20;;;9.60;99.90;;;;;;4159740;28;20041;-67
2021/04/03 09:40:46;;;;;;;23.13;5.88;;;9.60;99.90;;;;;;4158150;28;20037;-67
2021/04/03 09:42:55;;;;;;;15.95;4.68;;;9.70;99.90;;;;;;4160357;28;20647;-67
2021/04/03 09:44:58;;;;;;;17.70;5.43;;;9.70;99.90;;;;;;4167323;28;20065;-67
2021/04/03 09:47:00;;;;;;;13.77;4.45;;;9.80;99.90;;;;;;4162780;28;20053;-67
2021/04/03 09:49:01;;;;;;;23.20;5.15;;;9.80;99.90;;;;;;4160882;28;20033;-68
2021/04/03 09:51:04;;;;;;;23.20;6.15;;;9.80;99.90;;;;;;4162250;28;20041;-67
2021/04/03 09:53:12;;;;;;;24.70;5.65;;;9.90;99.90;;;;;;4160172;28;20030;-67
2021/04/03 09:55:13;;;;;;;21.85;5.28;;;9.90;99.90;;;;;;4175101;28;20036;-67
2021/04/03 09:57:15;;;;;;;23.40;5.45;;;9.90;99.90;;;;;;4165612;28;20109;-67
2021/04/03 09:59:16;;;;;;;23.70;5.82;;;10.00;99.90;;;;;;4157910;28;20113;-67
2021/04/03 10:01:16;;;;;;;21.75;5.25;;;10.00;99.90;;;;;;4178996;28;20745;-67
2021/04/03 10:03:17;;;;;;;21.77;5.22;;;10.00;99.90;;;;;;4159013;28;20517;-67
2021/04/03 10:05:18;;;;;;;22.02;5.88;;;10.10;99.90;;;;;;4160695;28;20057;-67
2021/04/03 10:07:19;;;;;;;17.48;5.57;;;10.10;99.90;;;;;;4159909;28;20409;-67
2021/04/03 10:09:20;;;;;;;17.30;5.13;;;10.20;99.90;;;;;;4159645;28;20045;-67
2021/04/03 10:11:21;;;;;;;14.73;4.27;;;10.20;99.90;;;;;;4160709;28;20092;-67
2021/04/03 10:13:22;;;;;;;23.83;5.75;;;10.20;99.90;;;;;;4160515;28;20639;-67
2021/04/03 10:15:22;;;;;;;20.08;4.72;;;10.30;99.90;;;;;;4159874;28;20030;-67
2021/04/03 10:17:23;;;;;;;13.65;4.18;;;10.40;99.90;;;;;;4160314;28;20141;-67
2021/04/03 10:19:23;;;;;;;15.88;4.82;;;10.50;99.90;;;;;;4160495;28;20067;-67
2021/04/03 10:21:25;;;;;;;22.52;5.55;;;10.50;99.90;;;;;;4160620;28;20029;-67
2021/04/03 10:23:25;;;;;;;24.25;7.60;;;10.70;99.90;;;;;;4159138;28;20030;-67
2021/04/03 10:25:26;;;;;;;19.70;7.32;;;10.80;99.90;;;;;;4175174;28;20497;-67
2021/04/03 10:27:26;;;;;;;17.00;5.95;;;10.80;99.90;;;;;;4159616;28;20025;-67
2021/04/03 10:29:27;;;;;;;19.23;6.28;;;10.80;99.90;;;;;;4162894;28;20048;-67
2021/04/03 10:31:28;;;;;;;16.63;5.10;;;10.90;99.90;;;;;;4161526;28;20041;-67
2021/04/03 10:33:29;;;;;;;19.40;5.28;;;11.00;99.90;;;;;;4160738;28;20080;-67
2021/04/03 10:35:30;;;;;;;21.65;5.53;;;11.00;99.90;;;;;;4166237;28;20036;-67
2021/04/03 10:37:30;;;;;;;18.05;4.82;;;11.00;99.90;;;;;;4176868;28;20052;-67
2021/04/03 10:39:31;;;;;;;22.15;5.53;;;11.00;99.90;;;;;;4171244;28;20044;-67
2021/04/03 10:41:33;;;;;;;28.08;5.68;;;11.10;99.90;;;;;;4161728;28;20168;-67